Terminal Aerodrome Forecast
Issued by NWS

Current Version | Previous Version | Graphics & Text | Print | Product List | Glossary On
Versions: 1 2 3 4 5 6 7 8 9 10 11 12 13 14 15 16 17 18 19
000
FTUS41 KPBZ 240111 AAA
TAFMGW
TAF AMD
KMGW 240111Z 2401/2424 00000KT P6SM -RA VCSH FEW040 OVC080
     FM240200 12004KT P6SM -RA OVC050
     FM240400 12004KT P6SM VCSH BKN030
     FM241300 13005KT P6SM BKN025
     FM242200 13010G23KT P6SM -SHRA OVC015=

USA.gov is the U.S. government's official web portal to all federal, state and local government web resources and services.